sensor_id;sensor_type;location;lat;lon;timestamp;P1;durP1;ratioP1;P2;durP2;ratioP2
60700;SDS011;46541;49.894;10.886;2023-08-30T00:01:10;4.55;;;1.42;;
60700;SDS011;46541;49.894;10.886;2023-08-30T00:03:37;2.33;;;1.02;;
60700;SDS011;46541;49.894;10.886;2023-08-30T00:06:05;3.42;;;0.95;;
60700;SDS011;46541;49.894;10.886;2023-08-30T00:08:32;2.55;;;1.33;;
60700;SDS011;46541;49.894;10.886;2023-08-30T00:11:00;4.03;;;1.23;;
60700;SDS011;46541;49.894;10.886;2023-08-30T00:13:31;4.40;;;1.20;;
60700;SDS011;46541;49.894;10.886;2023-08-30T00:15:59;2.10;;;1.42;;
60700;SDS011;46541;49.894;10.886;2023-08-30T00:18:28;1.88;;;1.08;;
60700;SDS011;46541;49.894;10.886;2023-08-30T00:20:56;11.93;;;2.08;;
60700;SDS011;46541;49.894;10.886;2023-08-30T00:23:23;7.75;;;1.50;;
60700;SDS011;46541;49.894;10.886;2023-08-30T00:25:50;3.55;;;1.52;;
60700;SDS011;46541;49.894;10.886;2023-08-30T00:28:17;3.72;;;1.30;;
60700;SDS011;46541;49.894;10.886;2023-08-30T00:30:44;4.05;;;1.50;;
60700;SDS011;46541;49.894;10.886;2023-08-30T00:33:10;2.55;;;1.63;;
60700;SDS011;46541;49.894;10.886;2023-08-30T00:35:37;2.70;;;1.55;;
60700;SDS011;46541;49.894;10.886;2023-08-30T00:38:04;3.10;;;1.45;;
60700;SDS011;46541;49.894;10.886;2023-08-30T00:40:37;3.13;;;1.30;;
60700;SDS011;46541;49.894;10.886;2023-08-30T00:43:07;4.32;;;1.52;;
60700;SDS011;46541;49.894;10.886;2023-08-30T00:45:34;6.03;;;1.70;;
60700;SDS011;46541;49.894;10.886;2023-08-30T00:48:05;2.92;;;1.90;;
60700;SDS011;46541;49.894;10.886;2023-08-30T00:50:33;2.05;;;1.40;;
60700;SDS011;46541;49.894;10.886;2023-08-30T00:53:00;3.10;;;1.85;;
60700;SDS011;46541;49.894;10.886;2023-08-30T00:55:34;2.05;;;1.73;;
60700;SDS011;46541;49.894;10.886;2023-08-30T00:58:02;5.25;;;1.90;;
60700;SDS011;46541;49.894;10.886;2023-08-30T01:00:29;3.30;;;1.77;;
60700;SDS011;46541;49.894;10.886;2023-08-30T01:02:57;4.47;;;1.70;;
60700;SDS011;46541;49.894;10.886;2023-08-30T01:05:24;1.77;;;1.52;;
60700;SDS011;46541;49.894;10.886;2023-08-30T01:07:51;5.50;;;2.03;;
60700;SDS011;46541;49.894;10.886;2023-08-30T01:10:22;5.10;;;1.38;;
60700;SDS011;46541;49.894;10.886;2023-08-30T01:13:18;3.42;;;1.77;;
60700;SDS011;46541;49.894;10.886;2023-08-30T01:15:47;2.28;;;1.73;;
60700;SDS011;46541;49.894;10.886;2023-08-30T01:18:18;3.17;;;1.42;;
60700;SDS011;46541;49.894;10.886;2023-08-30T01:20:46;1.35;;;1.20;;
60700;SDS011;46541;49.894;10.886;2023-08-30T01:23:24;6.57;;;2.05;;
60700;SDS011;46541;49.894;10.886;2023-08-30T01:28:56;2.20;;;1.30;;
60700;SDS011;46541;49.894;10.886;2023-08-30T01:31:27;3.92;;;1.60;;
60700;SDS011;46541;49.894;10.886;2023-08-30T01:34:01;4.47;;;2.00;;
60700;SDS011;46541;49.894;10.886;2023-08-30T01:36:29;2.17;;;1.90;;
60700;SDS011;46541;49.894;10.886;2023-08-30T01:38:59;8.65;;;1.92;;
60700;SDS011;46541;49.894;10.886;2023-08-30T01:41:26;3.95;;;2.28;;
60700;SDS011;46541;49.894;10.886;2023-08-30T01:43:55;3.38;;;2.10;;
60700;SDS011;46541;49.894;10.886;2023-08-30T01:46:23;3.10;;;1.27;;
60700;SDS011;46541;49.894;10.886;2023-08-30T01:48:50;4.22;;;1.92;;
60700;SDS011;46541;49.894;10.886;2023-08-30T01:51:18;2.85;;;1.55;;
60700;SDS011;46541;49.894;10.886;2023-08-30T01:53:48;4.10;;;1.80;;
60700;SDS011;46541;49.894;10.886;2023-08-30T01:56:17;2.92;;;1.67;;
60700;SDS011;46541;49.894;10.886;2023-08-30T01:58:44;3.38;;;1.90;;
60700;SDS011;46541;49.894;10.886;2023-08-30T02:01:11;2.17;;;1.27;;
60700;SDS011;46541;49.894;10.886;2023-08-30T02:03:38;4.43;;;2.03;;
60700;SDS011;46541;49.894;10.886;2023-08-30T02:06:09;4.10;;;2.13;;
60700;SDS011;46541;49.894;10.886;2023-08-30T02:08:46;7.50;;;2.42;;
60700;SDS011;46541;49.894;10.886;2023-08-30T02:11:26;3.90;;;2.58;;
60700;SDS011;46541;49.894;10.886;2023-08-30T02:13:54;3.63;;;2.30;;
60700;SDS011;46541;49.894;10.886;2023-08-30T02:16:25;5.10;;;2.03;;
60700;SDS011;46541;49.894;10.886;2023-08-30T02:18:53;3.33;;;1.95;;
60700;SDS011;46541;49.894;10.886;2023-08-30T02:21:21;3.38;;;2.15;;
60700;SDS011;46541;49.894;10.886;2023-08-30T02:23:51;2.05;;;1.60;;
60700;SDS011;46541;49.894;10.886;2023-08-30T02:26:19;3.92;;;1.65;;
60700;SDS011;46541;49.894;10.886;2023-08-30T02:28:46;3.75;;;1.58;;
60700;SDS011;46541;49.894;10.886;2023-08-30T02:31:13;1.98;;;1.63;;
60700;SDS011;46541;49.894;10.886;2023-08-30T02:33:40;5.30;;;2.00;;
60700;SDS011;46541;49.894;10.886;2023-08-30T02:36:07;5.00;;;2.00;;
60700;SDS011;46541;49.894;10.886;2023-08-30T02:38:34;3.50;;;1.85;;
60700;SDS011;46541;49.894;10.886;2023-08-30T02:41:01;5.60;;;1.70;;
60700;SDS011;46541;49.894;10.886;2023-08-30T02:43:28;2.88;;;1.58;;
60700;SDS011;46541;49.894;10.886;2023-08-30T02:45:54;3.22;;;1.48;;
60700;SDS011;46541;49.894;10.886;2023-08-30T02:48:21;3.33;;;1.70;;
60700;SDS011;46541;49.894;10.886;2023-08-30T02:50:48;3.35;;;1.50;;
60700;SDS011;46541;49.894;10.886;2023-08-30T02:53:15;8.10;;;1.73;;
60700;SDS011;46541;49.894;10.886;2023-08-30T02:55:41;1.98;;;1.65;;
60700;SDS011;46541;49.894;10.886;2023-08-30T02:58:08;3.92;;;2.15;;
60700;SDS011;46541;49.894;10.886;2023-08-30T03:00:35;3.75;;;2.13;;
60700;SDS011;46541;49.894;10.886;2023-08-30T03:03:02;3.83;;;2.00;;
60700;SDS011;46541;49.894;10.886;2023-08-30T03:05:29;5.03;;;1.80;;
60700;SDS011;46541;49.894;10.886;2023-08-30T03:07:56;2.33;;;1.98;;
60700;SDS011;46541;49.894;10.886;2023-08-30T03:10:23;2.17;;;1.98;;
60700;SDS011;46541;49.894;10.886;2023-08-30T03:12:50;2.13;;;1.73;;
60700;SDS011;46541;49.894;10.886;2023-08-30T03:15:17;4.57;;;1.90;;
60700;SDS011;46541;49.894;10.886;2023-08-30T03:17:44;5.55;;;1.75;;
60700;SDS011;46541;49.894;10.886;2023-08-30T03:20:10;2.72;;;1.60;;
60700;SDS011;46541;49.894;10.886;2023-08-30T03:22:37;4.60;;;1.73;;
60700;SDS011;46541;49.894;10.886;2023-08-30T03:25:04;2.80;;;2.00;;
60700;SDS011;46541;49.894;10.886;2023-08-30T03:27:32;3.80;;;1.80;;
60700;SDS011;46541;49.894;10.886;2023-08-30T03:29:59;7.10;;;2.10;;
60700;SDS011;46541;49.894;10.886;2023-08-30T03:32:26;4.70;;;1.90;;
60700;SDS011;46541;49.894;10.886;2023-08-30T03:34:52;2.75;;;1.73;;
60700;SDS011;46541;49.894;10.886;2023-08-30T03:37:19;4.88;;;1.75;;
60700;SDS011;46541;49.894;10.886;2023-08-30T03:39:46;2.58;;;1.63;;
60700;SDS011;46541;49.894;10.886;2023-08-30T03:42:12;1.98;;;1.70;;
60700;SDS011;46541;49.894;10.886;2023-08-30T03:44:39;4.43;;;1.90;;
60700;SDS011;46541;49.894;10.886;2023-08-30T03:47:06;2.38;;;1.70;;
60700;SDS011;46541;49.894;10.886;2023-08-30T03:49:33;6.13;;;2.50;;
60700;SDS011;46541;49.894;10.886;2023-08-30T03:52:01;2.35;;;1.80;;
60700;SDS011;46541;49.894;10.886;2023-08-30T03:54:27;3.90;;;1.90;;
60700;SDS011;46541;49.894;10.886;2023-08-30T03:56:54;1.85;;;1.73;;
60700;SDS011;46541;49.894;10.886;2023-08-30T03:59:21;2.40;;;1.85;;
60700;SDS011;46541;49.894;10.886;2023-08-30T04:01:52;4.47;;;2.25;;
60700;SDS011;46541;49.894;10.886;2023-08-30T04:04:19;3.78;;;2.17;;
60700;SDS011;46541;49.894;10.886;2023-08-30T04:06:45;4.93;;;2.33;;
60700;SDS011;46541;49.894;10.886;2023-08-30T04:09:12;2.10;;;1.90;;
60700;SDS011;46541;49.894;10.886;2023-08-30T04:11:39;2.28;;;2.03;;
60700;SDS011;46541;49.894;10.886;2023-08-30T04:14:06;5.20;;;3.60;;
60700;SDS011;46541;49.894;10.886;2023-08-30T04:16:32;7.13;;;2.30;;
60700;SDS011;46541;49.894;10.886;2023-08-30T04:18:59;3.40;;;2.90;;
60700;SDS011;46541;49.894;10.886;2023-08-30T04:21:26;3.47;;;2.55;;
60700;SDS011;46541;49.894;10.886;2023-08-30T04:23:53;3.20;;;2.58;;
60700;SDS011;46541;49.894;10.886;2023-08-30T04:26:19;3.47;;;3.10;;
60700;SDS011;46541;49.894;10.886;2023-08-30T04:28:46;3.22;;;2.60;;
60700;SDS011;46541;49.894;10.886;2023-08-30T04:31:13;9.85;;;2.65;;
60700;SDS011;46541;49.894;10.886;2023-08-30T04:33:39;4.95;;;2.45;;
60700;SDS011;46541;49.894;10.886;2023-08-30T04:36:06;3.28;;;2.50;;
60700;SDS011;46541;49.894;10.886;2023-08-30T04:38:33;4.60;;;2.53;;
60700;SDS011;46541;49.894;10.886;2023-08-30T04:41:10;3.53;;;3.05;;
60700;SDS011;46541;49.894;10.886;2023-08-30T04:43:37;3.22;;;2.92;;
60700;SDS011;46541;49.894;10.886;2023-08-30T04:46:04;3.92;;;3.17;;
60700;SDS011;46541;49.894;10.886;2023-08-30T04:48:31;4.50;;;3.70;;
60700;SDS011;46541;49.894;10.886;2023-08-30T04:51:04;12.23;;;3.20;;
60700;SDS011;46541;49.894;10.886;2023-08-30T04:53:31;4.88;;;3.17;;
60700;SDS011;46541;49.894;10.886;2023-08-30T04:55:58;6.05;;;3.05;;
60700;SDS011;46541;49.894;10.886;2023-08-30T04:58:25;23.98;;;3.75;;
60700;SDS011;46541;49.894;10.886;2023-08-30T05:00:52;31.27;;;4.15;;
60700;SDS011;46541;49.894;10.886;2023-08-30T05:03:22;4.78;;;2.80;;
60700;SDS011;46541;49.894;10.886;2023-08-30T05:05:49;6.72;;;3.63;;
60700;SDS011;46541;49.894;10.886;2023-08-30T05:08:15;4.28;;;3.60;;
60700;SDS011;46541;49.894;10.886;2023-08-30T05:10:42;14.43;;;3.80;;
60700;SDS011;46541;49.894;10.886;2023-08-30T05:13:09;6.75;;;3.10;;
60700;SDS011;46541;49.894;10.886;2023-08-30T05:15:36;11.63;;;3.70;;
60700;SDS011;46541;49.894;10.886;2023-08-30T05:18:03;8.60;;;3.88;;
60700;SDS011;46541;49.894;10.886;2023-08-30T05:20:30;11.88;;;4.28;;
60700;SDS011;46541;49.894;10.886;2023-08-30T05:22:57;13.38;;;3.72;;
60700;SDS011;46541;49.894;10.886;2023-08-30T05:25:24;12.38;;;4.35;;
60700;SDS011;46541;49.894;10.886;2023-08-30T05:27:52;16.17;;;5.57;;
60700;SDS011;46541;49.894;10.886;2023-08-30T05:30:18;4.93;;;4.07;;
60700;SDS011;46541;49.894;10.886;2023-08-30T05:32:45;6.53;;;4.60;;
60700;SDS011;46541;49.894;10.886;2023-08-30T05:35:12;5.95;;;5.25;;
60700;SDS011;46541;49.894;10.886;2023-08-30T05:37:39;7.03;;;5.18;;
60700;SDS011;46541;49.894;10.886;2023-08-30T05:40:06;7.57;;;4.15;;
60700;SDS011;46541;49.894;10.886;2023-08-30T05:42:34;5.03;;;4.28;;
60700;SDS011;46541;49.894;10.886;2023-08-30T05:45:00;4.45;;;3.78;;
60700;SDS011;46541;49.894;10.886;2023-08-30T05:47:27;6.03;;;3.78;;
60700;SDS011;46541;49.894;10.886;2023-08-30T05:49:54;3.78;;;3.40;;
60700;SDS011;46541;49.894;10.886;2023-08-30T05:52:20;6.80;;;4.53;;
60700;SDS011;46541;49.894;10.886;2023-08-30T05:54:47;6.97;;;4.50;;
60700;SDS011;46541;49.894;10.886;2023-08-30T05:57:14;8.90;;;4.72;;
60700;SDS011;46541;49.894;10.886;2023-08-30T05:59:41;5.50;;;4.53;;
60700;SDS011;46541;49.894;10.886;2023-08-30T06:02:07;10.35;;;6.68;;
60700;SDS011;46541;49.894;10.886;2023-08-30T06:04:34;7.57;;;6.22;;
60700;SDS011;46541;49.894;10.886;2023-08-30T06:07:01;9.77;;;7.32;;
60700;SDS011;46541;49.894;10.886;2023-08-30T06:09:29;9.57;;;7.00;;
60700;SDS011;46541;49.894;10.886;2023-08-30T06:11:56;11.10;;;7.15;;
60700;SDS011;46541;49.894;10.886;2023-08-30T06:14:23;10.23;;;7.70;;
60700;SDS011;46541;49.894;10.886;2023-08-30T06:16:49;9.63;;;6.82;;
60700;SDS011;46541;49.894;10.886;2023-08-30T06:19:16;10.10;;;8.10;;
60700;SDS011;46541;49.894;10.886;2023-08-30T06:21:43;10.00;;;7.70;;
60700;SDS011;46541;49.894;10.886;2023-08-30T06:24:10;9.45;;;6.50;;
60700;SDS011;46541;49.894;10.886;2023-08-30T06:26:37;9.80;;;6.28;;
60700;SDS011;46541;49.894;10.886;2023-08-30T06:29:03;11.15;;;7.78;;
60700;SDS011;46541;49.894;10.886;2023-08-30T06:31:31;11.43;;;8.02;;
60700;SDS011;46541;49.894;10.886;2023-08-30T06:33:59;11.82;;;8.20;;
60700;SDS011;46541;49.894;10.886;2023-08-30T06:36:26;12.52;;;8.40;;
60700;SDS011;46541;49.894;10.886;2023-08-30T06:38:53;12.85;;;9.32;;
60700;SDS011;46541;49.894;10.886;2023-08-30T06:41:19;11.25;;;7.40;;
60700;SDS011;46541;49.894;10.886;2023-08-30T06:43:46;12.35;;;8.02;;
60700;SDS011;46541;49.894;10.886;2023-08-30T06:46:13;12.15;;;8.68;;
60700;SDS011;46541;49.894;10.886;2023-08-30T06:48:40;13.18;;;8.68;;
60700;SDS011;46541;49.894;10.886;2023-08-30T06:51:06;14.32;;;10.02;;
60700;SDS011;46541;49.894;10.886;2023-08-30T06:53:33;12.20;;;9.00;;
60700;SDS011;46541;49.894;10.886;2023-08-30T06:56:00;15.77;;;9.02;;
60700;SDS011;46541;49.894;10.886;2023-08-30T06:58:27;13.93;;;8.70;;
60700;SDS011;46541;49.894;10.886;2023-08-30T07:00:56;12.82;;;9.00;;
60700;SDS011;46541;49.894;10.886;2023-08-30T07:03:24;14.05;;;8.90;;
60700;SDS011;46541;49.894;10.886;2023-08-30T07:05:51;10.50;;;9.23;;
60700;SDS011;46541;49.894;10.886;2023-08-30T07:08:18;10.60;;;8.23;;
60700;SDS011;46541;49.894;10.886;2023-08-30T07:10:45;12.93;;;9.55;;
60700;SDS011;46541;49.894;10.886;2023-08-30T07:13:12;13.10;;;9.65;;
60700;SDS011;46541;49.894;10.886;2023-08-30T07:15:39;11.07;;;8.77;;
60700;SDS011;46541;49.894;10.886;2023-08-30T07:18:07;11.50;;;9.13;;
60700;SDS011;46541;49.894;10.886;2023-08-30T07:20:35;13.77;;;8.88;;
60700;SDS011;46541;49.894;10.886;2023-08-30T07:23:03;11.13;;;9.07;;
60700;SDS011;46541;49.894;10.886;2023-08-30T07:25:30;12.98;;;9.30;;
60700;SDS011;46541;49.894;10.886;2023-08-30T07:27:59;12.23;;;8.90;;
60700;SDS011;46541;49.894;10.886;2023-08-30T07:30:26;11.75;;;9.45;;
60700;SDS011;46541;49.894;10.886;2023-08-30T07:32:53;11.48;;;9.73;;
60700;SDS011;46541;49.894;10.886;2023-08-30T07:35:20;13.93;;;11.20;;
60700;SDS011;46541;49.894;10.886;2023-08-30T07:37:47;14.20;;;9.55;;
60700;SDS011;46541;49.894;10.886;2023-08-30T07:40:14;11.02;;;9.73;;
60700;SDS011;46541;49.894;10.886;2023-08-30T07:42:40;14.60;;;12.32;;
60700;SDS011;46541;49.894;10.886;2023-08-30T07:45:07;19.33;;;13.23;;
60700;SDS011;46541;49.894;10.886;2023-08-30T07:47:35;13.27;;;11.75;;
60700;SDS011;46541;49.894;10.886;2023-08-30T07:50:04;14.32;;;11.27;;
60700;SDS011;46541;49.894;10.886;2023-08-30T07:52:31;13.20;;;11.50;;
60700;SDS011;46541;49.894;10.886;2023-08-30T07:55:10;14.15;;;10.95;;
60700;SDS011;46541;49.894;10.886;2023-08-30T07:57:37;14.07;;;12.07;;
60700;SDS011;46541;49.894;10.886;2023-08-30T08:00:04;14.48;;;11.77;;
60700;SDS011;46541;49.894;10.886;2023-08-30T08:02:31;16.17;;;13.70;;
60700;SDS011;46541;49.894;10.886;2023-08-30T08:04:58;14.98;;;12.57;;
60700;SDS011;46541;49.894;10.886;2023-08-30T08:07:25;14.02;;;12.52;;
60700;SDS011;46541;49.894;10.886;2023-08-30T08:09:54;16.00;;;13.00;;
60700;SDS011;46541;49.894;10.886;2023-08-30T08:12:21;15.13;;;13.52;;
60700;SDS011;46541;49.894;10.886;2023-08-30T08:14:48;19.45;;;13.23;;
60700;SDS011;46541;49.894;10.886;2023-08-30T08:17:15;17.77;;;14.60;;
60700;SDS011;46541;49.894;10.886;2023-08-30T08:19:41;16.15;;;14.35;;
60700;SDS011;46541;49.894;10.886;2023-08-30T08:22:10;20.80;;;15.20;;
60700;SDS011;46541;49.894;10.886;2023-08-30T08:24:37;14.65;;;13.07;;
60700;SDS011;46541;49.894;10.886;2023-08-30T08:27:04;15.90;;;14.15;;
60700;SDS011;46541;49.894;10.886;2023-08-30T08:29:32;15.85;;;12.07;;
60700;SDS011;46541;49.894;10.886;2023-08-30T08:31:59;16.63;;;14.32;;
60700;SDS011;46541;49.894;10.886;2023-08-30T08:34:26;16.25;;;14.32;;
60700;SDS011;46541;49.894;10.886;2023-08-30T08:36:53;15.80;;;13.75;;
60700;SDS011;46541;49.894;10.886;2023-08-30T08:39:19;18.67;;;12.10;;
60700;SDS011;46541;49.894;10.886;2023-08-30T08:41:46;14.23;;;11.52;;
60700;SDS011;46541;49.894;10.886;2023-08-30T08:44:14;14.07;;;11.85;;
60700;SDS011;46541;49.894;10.886;2023-08-30T08:46:42;14.60;;;11.68;;
60700;SDS011;46541;49.894;10.886;2023-08-30T08:49:10;15.80;;;14.15;;
60700;SDS011;46541;49.894;10.886;2023-08-30T08:51:42;12.35;;;10.38;;
60700;SDS011;46541;49.894;10.886;2023-08-30T08:54:10;12.50;;;10.35;;
60700;SDS011;46541;49.894;10.886;2023-08-30T08:56:38;12.05;;;9.60;;
60700;SDS011;46541;49.894;10.886;2023-08-30T08:59:06;10.77;;;9.27;;
60700;SDS011;46541;49.894;10.886;2023-08-30T09:01:35;12.25;;;9.07;;
60700;SDS011;46541;49.894;10.886;2023-08-30T09:04:06;9.35;;;8.45;;
60700;SDS011;46541;49.894;10.886;2023-08-30T09:06:34;12.90;;;10.32;;
60700;SDS011;46541;49.894;10.886;2023-08-30T09:09:02;9.10;;;8.20;;
60700;SDS011;46541;49.894;10.886;2023-08-30T09:11:30;8.98;;;8.05;;
60700;SDS011;46541;49.894;10.886;2023-08-30T09:14:15;8.90;;;8.00;;
60700;SDS011;46541;49.894;10.886;2023-08-30T09:16:43;8.52;;;6.80;;
60700;SDS011;46541;49.894;10.886;2023-08-30T09:19:20;9.57;;;7.72;;
60700;SDS011;46541;49.894;10.886;2023-08-30T09:21:54;10.77;;;6.15;;
60700;SDS011;46541;49.894;10.886;2023-08-30T09:24:22;8.20;;;7.40;;
60700;SDS011;46541;49.894;10.886;2023-08-30T09:26:51;7.78;;;6.95;;
60700;SDS011;46541;49.894;10.886;2023-08-30T09:29:19;7.07;;;6.38;;
60700;SDS011;46541;49.894;10.886;2023-08-30T09:31:50;8.80;;;6.80;;
60700;SDS011;46541;49.894;10.886;2023-08-30T09:34:24;9.93;;;7.75;;
60700;SDS011;46541;49.894;10.886;2023-08-30T09:36:52;8.50;;;7.40;;
60700;SDS011;46541;49.894;10.886;2023-08-30T09:39:19;10.85;;;8.90;;
60700;SDS011;46541;49.894;10.886;2023-08-30T09:41:47;8.20;;;7.40;;
60700;SDS011;46541;49.894;10.886;2023-08-30T09:44:16;8.93;;;6.40;;
60700;SDS011;46541;49.894;10.886;2023-08-30T09:46:54;6.20;;;5.20;;
60700;SDS011;46541;49.894;10.886;2023-08-30T09:49:24;6.25;;;5.32;;
60700;SDS011;46541;49.894;10.886;2023-08-30T09:51:53;6.47;;;5.60;;
60700;SDS011;46541;49.894;10.886;2023-08-30T09:54:22;8.50;;;6.07;;
60700;SDS011;46541;49.894;10.886;2023-08-30T09:56:52;6.40;;;5.65;;
60700;SDS011;46541;49.894;10.886;2023-08-30T09:59:22;9.15;;;4.63;;
60700;SDS011;46541;49.894;10.886;2023-08-30T10:01:49;8.52;;;6.00;;
60700;SDS011;46541;49.894;10.886;2023-08-30T10:04:19;11.43;;;5.60;;
60700;SDS011;46541;49.894;10.886;2023-08-30T10:06:46;8.43;;;5.15;;
60700;SDS011;46541;49.894;10.886;2023-08-30T10:09:14;6.85;;;5.32;;
60700;SDS011;46541;49.894;10.886;2023-08-30T10:11:45;6.65;;;5.10;;
60700;SDS011;46541;49.894;10.886;2023-08-30T10:14:12;6.90;;;4.70;;
60700;SDS011;46541;49.894;10.886;2023-08-30T10:19:11;4.72;;;4.22;;
60700;SDS011;46541;49.894;10.886;2023-08-30T10:21:41;8.48;;;4.85;;
60700;SDS011;46541;49.894;10.886;2023-08-30T10:24:11;6.53;;;5.20;;
60700;SDS011;46541;49.894;10.886;2023-08-30T10:26:59;4.97;;;4.47;;
60700;SDS011;46541;49.894;10.886;2023-08-30T10:29:31;7.10;;;4.60;;
60700;SDS011;46541;49.894;10.886;2023-08-30T10:32:06;9.80;;;4.93;;
60700;SDS011;46541;49.894;10.886;2023-08-30T10:34:34;6.43;;;4.30;;
60700;SDS011;46541;49.894;10.886;2023-08-30T10:37:02;5.07;;;3.70;;
60700;SDS011;46541;49.894;10.886;2023-08-30T10:42:13;8.07;;;4.78;;
60700;SDS011;46541;49.894;10.886;2023-08-30T10:47:30;3.40;;;2.95;;
60700;SDS011;46541;49.894;10.886;2023-08-30T10:49:59;7.93;;;5.32;;
60700;SDS011;46541;49.894;10.886;2023-08-30T10:52:27;4.72;;;3.42;;
60700;SDS011;46541;49.894;10.886;2023-08-30T10:55:04;6.32;;;3.00;;
60700;SDS011;46541;49.894;10.886;2023-08-30T10:57:35;5.18;;;3.25;;
60700;SDS011;46541;49.894;10.886;2023-08-30T11:02:44;2.72;;;2.30;;
60700;SDS011;46541;49.894;10.886;2023-08-30T11:05:13;3.13;;;2.80;;
60700;SDS011;46541;49.894;10.886;2023-08-30T11:07:43;4.50;;;2.65;;
60700;SDS011;46541;49.894;10.886;2023-08-30T11:10:11;4.35;;;3.40;;
60700;SDS011;46541;49.894;10.886;2023-08-30T11:12:41;4.57;;;3.50;;
60700;SDS011;46541;49.894;10.886;2023-08-30T11:15:09;3.85;;;3.45;;
60700;SDS011;46541;49.894;10.886;2023-08-30T11:17:37;5.35;;;3.60;;
60700;SDS011;46541;49.894;10.886;2023-08-30T11:20:08;3.90;;;3.30;;
60700;SDS011;46541;49.894;10.886;2023-08-30T11:22:47;5.65;;;4.70;;
60700;SDS011;46541;49.894;10.886;2023-08-30T11:25:15;4.82;;;4.28;;
60700;SDS011;46541;49.894;10.886;2023-08-30T11:27:43;5.32;;;4.22;;
60700;SDS011;46541;49.894;10.886;2023-08-30T11:30:10;5.90;;;4.00;;
60700;SDS011;46541;49.894;10.886;2023-08-30T11:32:38;5.15;;;4.22;;
60700;SDS011;46541;49.894;10.886;2023-08-30T11:35:07;5.47;;;4.07;;
60700;SDS011;46541;49.894;10.886;2023-08-30T11:37:34;6.22;;;3.90;;
60700;SDS011;46541;49.894;10.886;2023-08-30T11:40:02;4.13;;;3.80;;
60700;SDS011;46541;49.894;10.886;2023-08-30T11:42:30;6.65;;;3.63;;
60700;SDS011;46541;49.894;10.886;2023-08-30T11:44:58;5.20;;;4.30;;
60700;SDS011;46541;49.894;10.886;2023-08-30T11:47:26;4.47;;;3.97;;
60700;SDS011;46541;49.894;10.886;2023-08-30T11:49:53;4.75;;;4.30;;
60700;SDS011;46541;49.894;10.886;2023-08-30T11:52:22;5.32;;;4.13;;
60700;SDS011;46541;49.894;10.886;2023-08-30T11:54:50;4.40;;;4.00;;
60700;SDS011;46541;49.894;10.886;2023-08-30T11:57:18;4.95;;;4.20;;
60700;SDS011;46541;49.894;10.886;2023-08-30T11:59:45;4.28;;;3.83;;
60700;SDS011;46541;49.894;10.886;2023-08-30T12:02:13;8.35;;;3.75;;
60700;SDS011;46541;49.894;10.886;2023-08-30T12:04:42;4.95;;;4.18;;
60700;SDS011;46541;49.894;10.886;2023-08-30T12:07:21;6.80;;;4.50;;
60700;SDS011;46541;49.894;10.886;2023-08-30T12:09:49;4.88;;;3.90;;
60700;SDS011;46541;49.894;10.886;2023-08-30T12:12:16;4.93;;;4.00;;
60700;SDS011;46541;49.894;10.886;2023-08-30T12:14:43;5.07;;;4.20;;
60700;SDS011;46541;49.894;10.886;2023-08-30T12:17:09;4.45;;;4.05;;
60700;SDS011;46541;49.894;10.886;2023-08-30T12:19:39;4.78;;;4.25;;
60700;SDS011;46541;49.894;10.886;2023-08-30T12:22:08;5.00;;;4.30;;
60700;SDS011;46541;49.894;10.886;2023-08-30T12:24:44;5.60;;;4.07;;
60700;SDS011;46541;49.894;10.886;2023-08-30T12:27:11;5.95;;;4.60;;
60700;SDS011;46541;49.894;10.886;2023-08-30T12:29:39;5.20;;;4.70;;
60700;SDS011;46541;49.894;10.886;2023-08-30T12:32:08;5.45;;;4.93;;
60700;SDS011;46541;49.894;10.886;2023-08-30T12:34:35;5.90;;;4.80;;
60700;SDS011;46541;49.894;10.886;2023-08-30T12:37:03;6.05;;;4.57;;
60700;SDS011;46541;49.894;10.886;2023-08-30T12:39:31;6.32;;;4.65;;
60700;SDS011;46541;49.894;10.886;2023-08-30T12:41:58;5.70;;;4.60;;
60700;SDS011;46541;49.894;10.886;2023-08-30T12:44:25;7.38;;;4.82;;
60700;SDS011;46541;49.894;10.886;2023-08-30T12:46:52;9.85;;;5.15;;
60700;SDS011;46541;49.894;10.886;2023-08-30T12:49:19;6.43;;;5.75;;
60700;SDS011;46541;49.894;10.886;2023-08-30T12:51:46;5.70;;;4.80;;
60700;SDS011;46541;49.894;10.886;2023-08-30T12:54:12;5.50;;;5.00;;
60700;SDS011;46541;49.894;10.886;2023-08-30T12:56:39;6.43;;;5.20;;
60700;SDS011;46541;49.894;10.886;2023-08-30T12:59:06;8.48;;;5.65;;
60700;SDS011;46541;49.894;10.886;2023-08-30T13:01:33;10.25;;;5.20;;
60700;SDS011;46541;49.894;10.886;2023-08-30T13:03:59;6.75;;;5.88;;
60700;SDS011;46541;49.894;10.886;2023-08-30T13:06:26;10.70;;;6.07;;
60700;SDS011;46541;49.894;10.886;2023-08-30T13:08:53;6.63;;;5.53;;
60700;SDS011;46541;49.894;10.886;2023-08-30T13:11:20;7.45;;;5.45;;
60700;SDS011;46541;49.894;10.886;2023-08-30T13:13:46;6.80;;;5.63;;
60700;SDS011;46541;49.894;10.886;2023-08-30T13:16:13;6.70;;;5.03;;
60700;SDS011;46541;49.894;10.886;2023-08-30T13:18:40;5.15;;;4.45;;
60700;SDS011;46541;49.894;10.886;2023-08-30T13:21:06;6.18;;;5.07;;
60700;SDS011;46541;49.894;10.886;2023-08-30T13:23:33;7.50;;;5.57;;
60700;SDS011;46541;49.894;10.886;2023-08-30T13:26:00;9.82;;;5.35;;
60700;SDS011;46541;49.894;10.886;2023-08-30T13:28:27;7.28;;;5.38;;
60700;SDS011;46541;49.894;10.886;2023-08-30T13:30:54;6.60;;;5.10;;
60700;SDS011;46541;49.894;10.886;2023-08-30T13:33:20;6.00;;;4.38;;
60700;SDS011;46541;49.894;10.886;2023-08-30T13:35:51;5.28;;;4.78;;
60700;SDS011;46541;49.894;10.886;2023-08-30T13:38:18;5.22;;;4.45;;
60700;SDS011;46541;49.894;10.886;2023-08-30T13:40:45;4.15;;;3.75;;
60700;SDS011;46541;49.894;10.886;2023-08-30T13:43:12;5.95;;;3.70;;
60700;SDS011;46541;49.894;10.886;2023-08-30T13:45:39;4.18;;;3.53;;
60700;SDS011;46541;49.894;10.886;2023-08-30T13:48:06;7.32;;;4.38;;
60700;SDS011;46541;49.894;10.886;2023-08-30T13:50:33;4.18;;;3.78;;
60700;SDS011;46541;49.894;10.886;2023-08-30T13:53:06;3.53;;;3.15;;
60700;SDS011;46541;49.894;10.886;2023-08-30T13:55:33;6.18;;;2.97;;
60700;SDS011;46541;49.894;10.886;2023-08-30T13:58:00;4.53;;;3.20;;
60700;SDS011;46541;49.894;10.886;2023-08-30T14:00:27;5.38;;;3.15;;
60700;SDS011;46541;49.894;10.886;2023-08-30T14:02:53;3.42;;;2.90;;
60700;SDS011;46541;49.894;10.886;2023-08-30T14:05:20;2.67;;;2.47;;
60700;SDS011;46541;49.894;10.886;2023-08-30T14:07:47;2.60;;;2.40;;
60700;SDS011;46541;49.894;10.886;2023-08-30T14:10:13;2.80;;;2.42;;
60700;SDS011;46541;49.894;10.886;2023-08-30T14:12:46;4.22;;;2.75;;
60700;SDS011;46541;49.894;10.886;2023-08-30T14:15:13;3.35;;;2.72;;
60700;SDS011;46541;49.894;10.886;2023-08-30T14:17:41;4.38;;;2.30;;
60700;SDS011;46541;49.894;10.886;2023-08-30T14:20:08;2.38;;;2.10;;
60700;SDS011;46541;49.894;10.886;2023-08-30T14:22:36;3.35;;;2.15;;
60700;SDS011;46541;49.894;10.886;2023-08-30T14:25:02;3.15;;;2.17;;
60700;SDS011;46541;49.894;10.886;2023-08-30T14:27:37;2.38;;;2.17;;
60700;SDS011;46541;49.894;10.886;2023-08-30T14:30:05;3.05;;;2.15;;
60700;SDS011;46541;49.894;10.886;2023-08-30T14:32:33;3.55;;;2.67;;
60700;SDS011;46541;49.894;10.886;2023-08-30T14:34:59;4.22;;;2.50;;
60700;SDS011;46541;49.894;10.886;2023-08-30T14:37:30;3.42;;;2.10;;
60700;SDS011;46541;49.894;10.886;2023-08-30T14:39:57;5.18;;;2.50;;
60700;SDS011;46541;49.894;10.886;2023-08-30T14:42:24;5.13;;;3.15;;
60700;SDS011;46541;49.894;10.886;2023-08-30T14:44:52;2.55;;;2.00;;
60700;SDS011;46541;49.894;10.886;2023-08-30T14:47:18;2.40;;;2.20;;
60700;SDS011;46541;49.894;10.886;2023-08-30T14:49:47;2.53;;;2.30;;